Arthur Maersk — OXJH2 — position and weather

sailwx.info

Track history (hours):
 
Tides and Currents Weather Stations Pressure Air Temp Water Temp Dewpoint Dewpoint Depression Visibility Wind Speed Wind Dir Waves Ship Positions

Arthur Maersk

Last reported at 2018-Jan-23 01:30 UTC. Time now 2018-Jan-23 01:59 UTC.
Position N 40°41' W 074°09'.

Length 352 m; draft 12.6 m.

Type: Cargo ship. MMSI: 220221000.

Date/timePositionNaut miles runAvg speedWind from/ knotsBaromVisibWave heightAir tempDewpointWater temp
2018-Jan-23 01:30N 40°41' W 074°09'0 0.0
2018-Jan-23 01:00N 40°41' W 074°09'0 0.0
2018-Jan-23 00:30N 40°41' W 074°09'0 0.0
2018-Jan-23 00:00N 40°41' W 074°09'0 0.0
2018-Jan-22 23:30N 40°41' W 074°09'0 0.0
2018-Jan-22 23:00N 40°41' W 074°09'0 0.0
2018-Jan-22 22:30N 40°41' W 074°09'0 0.0
2018-Jan-22 22:00N 40°41' W 074°09'0 0.0
2018-Jan-22 21:30N 40°41' W 074°09'0 0.0
2018-Jan-22 21:00N 40°41' W 074°09'0 0.0
2018-Jan-22 20:30N 40°41' W 074°09'0 0.0
2018-Jan-22 20:00N 40°41' W 074°09'0 0.0
2018-Jan-22 19:30N 40°41' W 074°09'0 0.0
2018-Jan-22 19:00N 40°41' W 074°09'0 0.0
2018-Jan-22 18:30N 40°41' W 074°09'0 0.0
2018-Jan-22 18:00N 40°41' W 074°09'0 0.0
2018-Jan-22 17:30N 40°41' W 074°09'0 0.0
2018-Jan-22 17:00N 40°41' W 074°09'0 0.0
2018-Jan-22 16:30N 40°41' W 074°09'0 0.0
2018-Jan-22 16:00N 40°41' W 074°09'0 0.0
2018-Jan-22 15:30N 40°41' W 074°09'0 0.0
2018-Jan-22 15:00N 40°41' W 074°09'0 0.0
2018-Jan-22 14:30N 40°41' W 074°09'0 0.0
2018-Jan-22 13:59N 40°41' W 074°09'0 0.0
2018-Jan-22 13:30N 40°41' W 074°09'0 0.0
2018-Jan-22 13:00N 40°41' W 074°09'0 0.0
2018-Jan-22 12:31N 40°41' W 074°09'0 0.0
2018-Jan-22 12:00N 40°41' W 074°09'0 0.0
2018-Jan-22 11:30N 40°41' W 074°09'0 0.0
2018-Jan-22 11:00N 40°41' W 074°09'0 0.0
2018-Jan-22 10:30N 40°41' W 074°09'0 0.0
2018-Jan-22 10:00N 40°41' W 074°09'0 0.0
2018-Jan-22 09:30N 40°41' W 074°09'0 0.0
2018-Jan-22 09:00N 40°41' W 074°09'0 0.0
2018-Jan-22 08:30N 40°41' W 074°09'0 0.0
2018-Jan-22 08:00N 40°41' W 074°09'0 0.0
2018-Jan-22 07:30N 40°41' W 074°09'0 0.0
2018-Jan-22 07:00N 40°41' W 074°09'0 0.0
2018-Jan-22 06:30N 40°41' W 074°09'0 0.0
2018-Jan-22 06:00N 40°41' W 074°09'0 0.0
2018-Jan-22 05:30N 40°41' W 074°09'0 0.0
2018-Jan-22 05:00N 40°41' W 074°09'0 0.0
2018-Jan-22 04:30N 40°41' W 074°09'0 0.0
2018-Jan-22 04:00N 40°41' W 074°09'0 0.0
2018-Jan-22 03:30N 40°41' W 074°09'0 0.0
2018-Jan-22 03:00N 40°41' W 074°09'0 0.0
2018-Jan-22 02:30N 40°41' W 074°09'0 0.0
2018-Jan-22 02:00N 40°41' W 074°09'0 0.0
2018-Jan-22 01:30N 40°41' W 074°09'0 0.0
2018-Jan-22 01:00N 40°41' W 074°09'0 0.0
2018-Jan-22 00:30N 40°41' W 074°09'0 0.0
2018-Jan-22 00:00N 40°41' W 074°09'0 0.0
2018-Jan-21 23:30N 40°41' W 074°09'0 0.0
2018-Jan-21 23:01N 40°41' W 074°09'0 0.0
2018-Jan-21 22:30N 40°41' W 074°09'0 0.0
2018-Jan-21 22:00N 40°41' W 074°09'0 0.0
2018-Jan-21 21:30N 40°41' W 074°09'0 0.0
2018-Jan-21 21:00N 40°41' W 074°09'0 0.0
2018-Jan-21 20:30N 40°41' W 074°09'0 0.0
2018-Jan-21 20:00N 40°41' W 074°09'0 0.0
2018-Jan-21 19:30N 40°41' W 074°09'0 0.0
2018-Jan-21 19:00N 40°41' W 074°09'0 0.0
2018-Jan-21 18:30N 40°41' W 074°09'0 0.0
2018-Jan-21 18:00N 40°41' W 074°09'0 0.0
2018-Jan-21 17:30N 40°41' W 074°09'0 0.0
2018-Jan-21 17:00N 40°41' W 074°09'0 0.0
2018-Jan-21 16:30N 40°41' W 074°09'1 2.9
2018-Jan-21 16:00N 40°39' W 074°09'2 4.0
2018-Jan-21 15:30N 40°39' W 074°06'3 5.8
2018-Jan-21 15:00N 40°37' W 074°03'4 8.9
2018-Jan-21 14:30N 40°33' W 074°02'5 9.3
2018-Jan-21 14:00N 40°30' W 073°57'5 9.7
2018-Jan-21 13:30N 40°28' W 073°51'4 7.3
2018-Jan-21 13:00N 40°25' W 073°48'4 8.1
2018-Jan-21 12:30N 40°21' W 073°46'4 8.0
2018-Jan-21 12:00N 40°17' W 073°46'5 9.7
2018-Jan-21 11:31N 40°12' W 073°45'5 8.3
2018-Jan-21 10:58N 40°08' W 073°45'2112.2
2018-Jan-21 09:15N 39°47' W 073°42'414.6
2018-Jan-21 08:59N 39°43' W 073°42'714.4
2018-Jan-21 08:30N 39°36' W 073°42'  
Track history (hours):
 
Tides and Currents Weather Stations Pressure Air Temp Water Temp Dewpoint Dewpoint Depression Visibility Wind Speed Wind Dir Waves Ship Positions

Arthur Maersk

Last reported at 2018-Jan-23 01:30 UTC. Time now 2018-Jan-23 01:59 UTC.
Position N 40°41' W 074°09'.

Length 352 m; draft 12.6 m.

Type: Cargo ship. MMSI: 220221000.

Date/timePositionNaut miles runAvg speedWind from/ knotsBaromVisibWave heightAir tempDewpointWater temp
2018-Jan-23 01:30N 40°41' W 074°09'0 0.0
2018-Jan-23 01:00N 40°41' W 074°09'0 0.0
2018-Jan-23 00:30N 40°41' W 074°09'0 0.0
2018-Jan-23 00:00N 40°41' W 074°09'0 0.0
2018-Jan-22 23:30N 40°41' W 074°09'0 0.0
2018-Jan-22 23:00N 40°41' W 074°09'0 0.0
2018-Jan-22 22:30N 40°41' W 074°09'0 0.0
2018-Jan-22 22:00N 40°41' W 074°09'0 0.0
2018-Jan-22 21:30N 40°41' W 074°09'0 0.0
2018-Jan-22 21:00N 40°41' W 074°09'0 0.0
2018-Jan-22 20:30N 40°41' W 074°09'0 0.0
2018-Jan-22 20:00N 40°41' W 074°09'0 0.0
2018-Jan-22 19:30N 40°41' W 074°09'0 0.0
2018-Jan-22 19:00N 40°41' W 074°09'0 0.0
2018-Jan-22 18:30N 40°41' W 074°09'0 0.0
2018-Jan-22 18:00N 40°41' W 074°09'0 0.0
2018-Jan-22 17:30N 40°41' W 074°09'0 0.0
2018-Jan-22 17:00N 40°41' W 074°09'0 0.0
2018-Jan-22 16:30N 40°41' W 074°09'0 0.0
2018-Jan-22 16:00N 40°41' W 074°09'0 0.0
2018-Jan-22 15:30N 40°41' W 074°09'0 0.0
2018-Jan-22 15:00N 40°41' W 074°09'0 0.0
2018-Jan-22 14:30N 40°41' W 074°09'0 0.0
2018-Jan-22 13:59N 40°41' W 074°09'0 0.0
2018-Jan-22 13:30N 40°41' W 074°09'0 0.0
2018-Jan-22 13:00N 40°41' W 074°09'0 0.0
2018-Jan-22 12:31N 40°41' W 074°09'0 0.0
2018-Jan-22 12:00N 40°41' W 074°09'0 0.0
2018-Jan-22 11:30N 40°41' W 074°09'0 0.0
2018-Jan-22 11:00N 40°41' W 074°09'0 0.0
2018-Jan-22 10:30N 40°41' W 074°09'0 0.0
2018-Jan-22 10:00N 40°41' W 074°09'0 0.0
2018-Jan-22 09:30N 40°41' W 074°09'0 0.0
2018-Jan-22 09:00N 40°41' W 074°09'0 0.0
2018-Jan-22 08:30N 40°41' W 074°09'0 0.0
2018-Jan-22 08:00N 40°41' W 074°09'0 0.0
2018-Jan-22 07:30N 40°41' W 074°09'0 0.0
2018-Jan-22 07:00N 40°41' W 074°09'0 0.0
2018-Jan-22 06:30N 40°41' W 074°09'0 0.0
2018-Jan-22 06:00N 40°41' W 074°09'0 0.0
2018-Jan-22 05:30N 40°41' W 074°09'0 0.0
2018-Jan-22 05:00N 40°41' W 074°09'0 0.0
2018-Jan-22 04:30N 40°41' W 074°09'0 0.0
2018-Jan-22 04:00N 40°41' W 074°09'0 0.0
2018-Jan-22 03:30N 40°41' W 074°09'0 0.0
2018-Jan-22 03:00N 40°41' W 074°09'0 0.0
2018-Jan-22 02:30N 40°41' W 074°09'0 0.0
2018-Jan-22 02:00N 40°41' W 074°09'0 0.0
2018-Jan-22 01:30N 40°41' W 074°09'0 0.0
2018-Jan-22 01:00N 40°41' W 074°09'0 0.0
2018-Jan-22 00:30N 40°41' W 074°09'0 0.0
2018-Jan-22 00:00N 40°41' W 074°09'0 0.0
2018-Jan-21 23:30N 40°41' W 074°09'0 0.0
2018-Jan-21 23:01N 40°41' W 074°09'0 0.0
2018-Jan-21 22:30N 40°41' W 074°09'0 0.0
2018-Jan-21 22:00N 40°41' W 074°09'0 0.0
2018-Jan-21 21:30N 40°41' W 074°09'0 0.0
2018-Jan-21 21:00N 40°41' W 074°09'0 0.0
2018-Jan-21 20:30N 40°41' W 074°09'0 0.0
2018-Jan-21 20:00N 40°41' W 074°09'0 0.0
2018-Jan-21 19:30N 40°41' W 074°09'0 0.0
2018-Jan-21 19:00N 40°41' W 074°09'0 0.0
2018-Jan-21 18:30N 40°41' W 074°09'0 0.0
2018-Jan-21 18:00N 40°41' W 074°09'0 0.0
2018-Jan-21 17:30N 40°41' W 074°09'0 0.0
2018-Jan-21 17:00N 40°41' W 074°09'0 0.0
2018-Jan-21 16:30N 40°41' W 074°09'1 2.9
2018-Jan-21 16:00N 40°39' W 074°09'2 4.0
2018-Jan-21 15:30N 40°39' W 074°06'3 5.8
2018-Jan-21 15:00N 40°37' W 074°03'4 8.9
2018-Jan-21 14:30N 40°33' W 074°02'5 9.3
2018-Jan-21 14:00N 40°30' W 073°57'5 9.7
2018-Jan-21 13:30N 40°28' W 073°51'4 7.3
2018-Jan-21 13:00N 40°25' W 073°48'4 8.1
2018-Jan-21 12:30N 40°21' W 073°46'4 8.0
2018-Jan-21 12:00N 40°17' W 073°46'5 9.7
2018-Jan-21 11:31N 40°12' W 073°45'5 8.3
2018-Jan-21 10:58N 40°08' W 073°45'2112.2
2018-Jan-21 09:15N 39°47' W 073°42'414.6
2018-Jan-21 08:59N 39°43' W 073°42'714.4
2018-Jan-21 08:30N 39°36' W 073°42'  

Dump ship's entire track history